Time;durP1;ratioP1;P1;durP2;ratioP2;P2;SDS_P1;SDS_P2;PMS_P1;PMS_P2;Temp;Humidity;BMP_temperature;BMP_pressure;BME280_temperature;BME280_humidity;BME280_pressure;Samples;Min_cycle;Max_cycle;Signal;HPM_P1;HPM_P2
2023/03/15 00:01:09;;;;;;;;;;;2.40;99.90;;;;;;4992180;28;19977;-76
2023/03/15 00:03:36;;;;;;;;;;;2.40;99.90;;;;;;4992746;28;19933;-75
2023/03/15 00:06:02;;;;;;;;;;;2.40;99.90;;;;;;4992824;28;19921;-75
2023/03/15 00:08:28;;;;;;;;;;;2.40;99.90;;;;;;5007707;28;19921;-75
2023/03/15 00:10:53;;;;;;;;;;;2.40;99.90;;;;;;4992547;28;20783;-75
2023/03/15 00:13:19;;;;;;;;;;;3.30;99.90;;;;;;4992480;28;19925;-76
2023/03/15 00:15:46;;;;;;;;;;;2.40;99.90;;;;;;4992635;28;19926;-75
2023/03/15 00:18:11;;;;;;;;;;;2.40;99.90;;;;;;4974890;28;20296;-75
2023/03/15 00:20:37;;;;;;;;;;;2.40;99.90;;;;;;4992169;28;19922;-80
2023/03/15 00:23:02;;;;;;;;;;;2.40;99.90;;;;;;4992143;28;19932;-80
2023/03/15 00:25:28;;;;;;;;;;;3.50;99.90;;;;;;4992412;28;20049;-80
2023/03/15 00:27:54;;;;;;;;;;;2.40;99.90;;;;;;4992281;28;20309;-77
2023/03/15 00:30:19;;;;;;;;;;;2.40;99.90;;;;;;4991811;28;19925;-80
2023/03/15 00:32:45;;;;;;;;;;;2.30;99.90;;;;;;4992000;28;19982;-78
2023/03/15 00:35:11;;;;;;;;;;;2.30;99.90;;;;;;4992093;28;20357;-75
2023/03/15 00:37:37;;;;;;;;;;;2.30;99.90;;;;;;4992272;28;20348;-76
2023/03/15 00:40:05;;;;;;;;;;;2.20;99.90;;;;;;4974722;28;19929;-81
2023/03/15 00:42:30;;;;;;;;;;;2.20;99.90;;;;;;4974411;28;19932;-80
2023/03/15 00:44:56;;;;;;;;;;;2.20;99.90;;;;;;4991812;28;20024;-77
2023/03/15 00:47:21;;;;;;;;;;;2.20;99.90;;;;;;4991663;28;20017;-81
2023/03/15 00:49:47;;;;;;;;;;;2.10;99.90;;;;;;4991864;28;19922;-76
2023/03/15 00:52:12;;;;;;;;;;;2.10;99.90;;;;;;4991538;28;19917;-81
2023/03/15 00:54:38;;;;;;;;;;;2.00;99.90;;;;;;4991861;28;19929;-80
2023/03/15 00:57:03;;;;;;;;;;;2.90;99.90;;;;;;4991695;28;19925;-80
2023/03/15 00:59:33;;;;;;;;;;;2.00;99.90;;;;;;4991609;28;20381;-79
2023/03/15 01:02:00;;;;;;;;;;;3.20;99.90;;;;;;4973886;28;20424;-82
2023/03/15 01:04:25;;;;;;;;;;;2.00;99.90;;;;;;4991120;28;20384;-76
2023/03/15 01:06:51;;;;;;;;;;;1.90;99.90;;;;;;4974244;28;19926;-77
2023/03/15 01:09:16;;;;;;;;;;;1.90;99.90;;;;;;4991624;28;20368;-74
2023/03/15 01:11:42;;;;;;;;;;;1.90;99.90;;;;;;4991368;28;19918;-76
2023/03/15 01:14:08;;;;;;;;;;;2.30;99.90;;;;;;4991536;28;19921;-81
2023/03/15 01:16:34;;;;;;;;;;;1.90;99.90;;;;;;4990996;28;19933;-80
2023/03/15 01:18:59;;;;;;;;;;;1.90;99.90;;;;;;4991128;28;19921;-76
2023/03/15 01:21:25;;;;;;;;;;;1.90;99.90;;;;;;4991165;28;19925;-79
2023/03/15 01:23:51;;;;;;;;;;;1.90;99.90;;;;;;4991132;28;19921;-76
2023/03/15 01:26:17;;;;;;;;;;;1.90;99.90;;;;;;4991215;28;19926;-77
2023/03/15 01:28:42;;;;;;;;;;;1.90;99.90;;;;;;4991068;28;19945;-75
2023/03/15 01:31:25;;;;;;;;;;;1.90;99.90;;;;;;4990825;28;19937;-79
2023/03/15 01:33:51;;;;;;;;;;;1.90;99.90;;;;;;4990936;28;19922;-78
2023/03/15 01:36:16;;;;;;;;;;;1.90;99.90;;;;;;4991011;28;20335;-76
2023/03/15 01:38:42;;;;;;;;;;;1.80;99.90;;;;;;4991081;28;19926;-79
2023/03/15 01:41:09;;;;;;;;;;;1.80;99.90;;;;;;4991036;28;19933;-81
2023/03/15 01:43:34;;;;;;;;;;;1.80;99.90;;;;;;4990807;28;19926;-79
2023/03/15 01:46:00;;;;;;;;;;;1.80;99.90;;;;;;4991049;28;19929;-81
2023/03/15 01:48:35;;;;;;;;;;;1.80;99.90;;;;;;4990745;28;19928;-81
2023/03/15 01:51:03;;;;;;;;;;;1.80;99.90;;;;;;4990916;28;19922;-79
2023/03/15 01:53:29;;;;;;;;;;;1.80;99.90;;;;;;4990858;28;20395;-80
2023/03/15 01:55:56;;;;;;;;;;;1.70;99.90;;;;;;4990974;28;19925;-75
2023/03/15 01:58:22;;;;;;;;;;;1.70;99.90;;;;;;4973436;28;20012;-79
2023/03/15 02:00:51;;;;;;;;;;;1.70;99.90;;;;;;4990726;28;20491;-78
2023/03/15 02:03:38;;;;;;;;;;;2.30;99.90;;;;;;4973373;28;20424;-76
2023/03/15 02:06:06;;;;;;;;;;;1.60;99.90;;;;;;4990896;28;19926;-78
2023/03/15 02:08:34;;;;;;;;;;;1.60;99.90;;;;;;4990679;28;19922;-74
2023/03/15 02:11:01;;;;;;;;;;;1.60;99.90;;;;;;4990888;28;19926;-75
2023/03/15 02:13:28;;;;;;;;;;;1.60;99.90;;;;;;4990810;28;19921;-77
2023/03/15 02:15:54;;;;;;;;;;;1.60;99.90;;;;;;4993050;28;19936;-74
2023/03/15 02:18:20;;;;;;;;;;;1.60;99.90;;;;;;4976612;28;19929;-81
2023/03/15 02:21:02;;;;;;;;;;;1.50;99.90;;;;;;4994801;28;19922;-76
2023/03/15 02:23:28;;;;;;;;;;;1.50;99.90;;;;;;4994713;28;19926;-75
2023/03/15 02:25:57;;;;;;;;;;;1.50;99.90;;;;;;4994583;28;20280;-74
2023/03/15 02:28:22;;;;;;;;;;;1.50;99.90;;;;;;4994468;28;19922;-78
2023/03/15 02:30:48;;;;;;;;;;;1.50;99.90;;;;;;4976881;28;20360;-75
2023/03/15 02:33:17;;;;;;;;;;;1.50;99.90;;;;;;4994527;28;19934;-75
2023/03/15 02:35:42;;;;;;;;;;;1.50;99.90;;;;;;4994582;28;20270;-80
2023/03/15 02:38:08;;;;;;;;;;;1.50;99.90;;;;;;4994308;28;19932;-76
2023/03/15 02:40:33;;;;;;;;;;;1.50;99.90;;;;;;4994224;28;20650;-78
2023/03/15 02:43:01;;;;;;;;;;;1.40;99.90;;;;;;4994049;28;20432;-81
2023/03/15 02:45:27;;;;;;;;;;;1.40;99.90;;;;;;4993784;28;20403;-81
2023/03/15 02:47:53;;;;;;;;;;;1.40;99.90;;;;;;4994153;28;19926;-82
2023/03/15 02:50:19;;;;;;;;;;;1.30;99.90;;;;;;4993605;28;19926;-81
2023/03/15 02:52:44;;;;;;;;;;;1.30;99.90;;;;;;4993970;28;19976;-79
2023/03/15 02:55:10;;;;;;;;;;;1.30;99.90;;;;;;4994141;28;20407;-82
2023/03/15 02:57:36;;;;;;;;;;;1.30;99.90;;;;;;4993993;28;20303;-76
2023/03/15 03:00:12;;;;;;;;;;;1.20;99.90;;;;;;4993402;28;19925;-78
2023/03/15 03:02:42;;;;;;;;;;;1.20;99.90;;;;;;4993344;28;19921;-74
2023/03/15 03:05:07;;;;;;;;;;;1.20;99.90;;;;;;4993100;28;19948;-82
2023/03/15 03:07:34;;;;;;;;;;;1.20;99.90;;;;;;4976649;28;19947;-76
2023/03/15 03:09:59;;;;;;;;;;;1.10;99.90;;;;;;4993829;28;19922;-75
2023/03/15 03:12:25;;;;;;;;;;;1.10;99.90;;;;;;4993781;28;20016;-80
2023/03/15 03:14:50;;;;;;;;;;;1.00;99.90;;;;;;4993272;28;20372;-78
2023/03/15 03:17:16;;;;;;;;;;;1.00;99.90;;;;;;4993137;28;19926;-76
2023/03/15 03:19:41;;;;;;;;;;;1.00;99.90;;;;;;4992991;28;19925;-79
2023/03/15 03:22:07;;;;;;;;;;;0.90;99.90;;;;;;4993328;28;19949;-74
2023/03/15 03:24:33;;;;;;;;;;;0.90;99.90;;;;;;4993290;28;19922;-78
2023/03/15 03:26:58;;;;;;;;;;;0.90;99.90;;;;;;4992509;28;20016;-75
2023/03/15 03:29:24;;;;;;;;;;;0.80;99.90;;;;;;4993096;28;20019;-76
2023/03/15 03:31:50;;;;;;;;;;;0.90;99.90;;;;;;4991971;28;19925;-79
2023/03/15 03:34:15;;;;;;;;;;;0.80;99.90;;;;;;4993094;28;19925;-76
2023/03/15 03:36:42;;;;;;;;;;;0.80;99.90;;;;;;4993097;28;19926;-80
2023/03/15 03:39:07;;;;;;;;;;;0.80;99.90;;;;;;4993114;28;19976;-81
2023/03/15 03:41:33;;;;;;;;;;;0.70;99.90;;;;;;4993149;28;20005;-76
2023/03/15 03:43:58;;;;;;;;;;;0.80;99.90;;;;;;4992601;28;20388;-81
2023/03/15 03:46:24;;;;;;;;;;;0.70;99.90;;;;;;4992097;28;19925;-81
2023/03/15 03:48:50;;;;;;;;;;;0.70;99.90;;;;;;4973671;28;19966;-76
2023/03/15 03:51:15;;;;;;;;;;;1.40;99.90;;;;;;4973419;28;19922;-76
2023/03/15 03:53:41;;;;;;;;;;;0.70;99.90;;;;;;4973476;28;20381;-79
2023/03/15 03:56:06;;;;;;;;;;;0.70;99.90;;;;;;4973304;28;20282;-79
2023/03/15 03:58:32;;;;;;;;;;;0.70;99.90;;;;;;4973286;28;19922;-80
2023/03/15 04:00:58;;;;;;;;;;;0.70;99.90;;;;;;4987611;28;19926;-74
2023/03/15 04:03:26;;;;;;;;;;;1.30;99.90;;;;;;4992737;28;19930;-76
2023/03/15 04:05:55;;;;;;;;;;;0.70;99.90;;;;;;4992344;28;19922;-75
2023/03/15 04:08:20;;;;;;;;;;;0.60;99.90;;;;;;4992951;28;19980;-82
2023/03/15 04:10:53;;;;;;;;;;;0.60;99.90;;;;;;4992722;28;20463;-82
2023/03/15 04:13:19;;;;;;;;;;;0.60;99.90;;;;;;4992525;28;20300;-76
2023/03/15 04:15:44;;;;;;;;;;;0.60;99.90;;;;;;4974469;28;19932;-82
2023/03/15 04:18:10;;;;;;;;;;;0.60;99.90;;;;;;4992042;28;19926;-77
2023/03/15 04:20:35;;;;;;;;;;;0.60;99.90;;;;;;4992516;28;19928;-76
2023/03/15 04:23:01;;;;;;;;;;;0.60;99.90;;;;;;4992543;28;19944;-79
2023/03/15 04:25:26;;;;;;;;;;;1.90;99.90;;;;;;4992533;28;19979;-76
2023/03/15 04:27:58;;;;;;;;;;;0.50;99.90;;;;;;4974107;28;19925;-82
2023/03/15 04:30:25;;;;;;;;;;;0.50;99.90;;;;;;4974713;28;20407;-81
2023/03/15 04:32:57;;;;;;;;;;;0.50;99.90;;;;;;4991645;28;19925;-78
2023/03/15 04:35:26;;;;;;;;;;;0.50;99.90;;;;;;4991488;28;20397;-81
2023/03/15 04:37:52;;;;;;;;;;;0.40;99.90;;;;;;4973744;28;19952;-76
2023/03/15 04:40:17;;;;;;;;;;;0.40;99.90;;;;;;4991839;28;20331;-81
2023/03/15 04:42:43;;;;;;;;;;;0.40;99.90;;;;;;4974166;28;20291;-80
2023/03/15 04:45:09;;;;;;;;;;;0.30;99.90;;;;;;4991766;28;19926;-79
2023/03/15 04:47:35;;;;;;;;;;;0.30;99.90;;;;;;4991597;28;20016;-75
2023/03/15 04:50:01;;;;;;;;;;;0.30;99.90;;;;;;4992202;28;20012;-77
2023/03/15 04:52:26;;;;;;;;;;;0.20;99.90;;;;;;4991953;28;19976;-78
2023/03/15 04:54:52;;;;;;;;;;;0.20;99.90;;;;;;4974524;28;19975;-76
2023/03/15 04:57:17;;;;;;;;;;;0.20;99.90;;;;;;4991365;28;19926;-78
2023/03/15 04:59:43;;;;;;;;;;;0.10;99.90;;;;;;4991683;28;20368;-81
2023/03/15 05:02:08;;;;;;;;;;;0.10;99.90;;;;;;4991602;28;19932;-79
2023/03/15 05:04:34;;;;;;;;;;;0.10;99.90;;;;;;4991502;28;19918;-75
2023/03/15 05:06:59;;;;;;;;;;;0.00;99.90;;;;;;4973993;28;19925;-76
2023/03/15 05:09:25;;;;;;;;;;;0.00;99.90;;;;;;4991169;28;19922;-75
2023/03/15 05:11:50;;;;;;;;;;;0.00;99.90;;;;;;4991600;28;19981;-76
2023/03/15 05:14:16;;;;;;;;;;;0.00;99.90;;;;;;4991411;28;19929;-76
2023/03/15 05:16:42;;;;;;;;;;;0.00;99.90;;;;;;4990859;28;20300;-76
2023/03/15 05:19:07;;;;;;;;;;;-0.10;99.90;;;;;;4991416;28;19926;-78
2023/03/15 05:21:33;;;;;;;;;;;-0.10;99.90;;;;;;4991165;28;19957;-74
2023/03/15 05:23:58;;;;;;;;;;;-0.10;99.90;;;;;;4991279;28;19922;-78
2023/03/15 05:26:24;;;;;;;;;;;-0.10;99.90;;;;;;5006379;28;19937;-82
2023/03/15 05:28:51;;;;;;;;;;;0.00;99.90;;;;;;4991428;28;19921;-78
2023/03/15 05:31:16;;;;;;;;;;;0.00;99.90;;;;;;4990819;28;19925;-78
2023/03/15 05:33:45;;;;;;;;;;;0.00;99.90;;;;;;4991002;28;20483;-82
2023/03/15 05:36:14;;;;;;;;;;;0.00;99.90;;;;;;4991245;28;19929;-76
2023/03/15 05:38:40;;;;;;;;;;;0.00;99.90;;;;;;4990135;28;19926;-78
2023/03/15 05:41:07;;;;;;;;;;;0.00;99.90;;;;;;4991169;28;19922;-82
2023/03/15 05:43:32;;;;;;;;;;;0.10;99.90;;;;;;4990708;28;20412;-76
2023/03/15 05:45:58;;;;;;;;;;;0.10;99.90;;;;;;4990642;28;19925;-74
2023/03/15 05:48:24;;;;;;;;;;;0.20;99.90;;;;;;4990551;28;19922;-75
2023/03/15 05:50:49;;;;;;;;;;;1.80;99.90;;;;;;4973824;28;20510;-73
2023/03/15 05:53:15;;;;;;;;;;;0.20;99.90;;;;;;4990634;28;20458;-74
2023/03/15 05:55:40;;;;;;;;;;;0.30;99.90;;;;;;4990790;28;20033;-76
2023/03/15 05:58:06;;;;;;;;;;;0.30;99.90;;;;;;4990939;28;19960;-76
2023/03/15 06:00:31;;;;;;;;;;;0.30;99.90;;;;;;4990570;28;20313;-74
2023/03/15 06:02:57;;;;;;;;;;;0.30;99.90;;;;;;4990690;28;19933;-76
2023/03/15 06:05:23;;;;;;;;;;;0.30;99.90;;;;;;4973589;28;20335;-81
2023/03/15 06:07:49;;;;;;;;;;;0.30;99.90;;;;;;4990789;28;20008;-74
2023/03/15 06:10:14;;;;;;;;;;;0.30;99.90;;;;;;4991010;28;19926;-75
2023/03/15 06:12:40;;;;;;;;;;;0.30;99.90;;;;;;4973273;28;19921;-74
2023/03/15 06:15:07;;;;;;;;;;;0.30;99.90;;;;;;4990433;28;19931;-81
2023/03/15 06:17:32;;;;;;;;;;;0.30;99.90;;;;;;4990367;28;19924;-75
2023/03/15 06:19:58;;;;;;;;;;;0.30;99.90;;;;;;4990336;28;19926;-76
2023/03/15 06:22:23;;;;;;;;;;;0.30;99.90;;;;;;4990499;28;20309;-83
2023/03/15 06:24:49;;;;;;;;;;;0.30;99.90;;;;;;4990625;28;19932;-75
2023/03/15 06:27:14;;;;;;;;;;;0.30;99.90;;;;;;4990646;28;20297;-74
2023/03/15 06:29:40;;;;;;;;;;;0.30;99.90;;;;;;4990633;28;19933;-75
2023/03/15 06:32:06;;;;;;;;;;;0.30;99.90;;;;;;4990107;28;19941;-75
2023/03/15 06:34:31;;;;;;;;;;;0.30;99.90;;;;;;4990553;28;20020;-75
2023/03/15 06:36:58;;;;;;;;;;;0.30;99.90;;;;;;4990652;28;20340;-75
2023/03/15 06:39:23;;;;;;;;;;;0.30;99.90;;;;;;4989952;28;19973;-74
2023/03/15 06:41:52;;;;;;;;;;;0.30;99.90;;;;;;4990771;28;19925;-74
2023/03/15 06:44:19;;;;;;;;;;;0.30;99.90;;;;;;4971172;28;19932;-74
2023/03/15 06:46:44;;;;;;;;;;;0.30;99.90;;;;;;4970701;28;19937;-74
2023/03/15 06:49:10;;;;;;;;;;;0.30;99.90;;;;;;4970562;28;19930;-73
2023/03/15 06:51:35;;;;;;;;;;;0.40;99.90;;;;;;4970952;28;19925;-75
2023/03/15 06:54:01;;;;;;;;;;;1.00;99.90;;;;;;4970968;28;20348;-77
2023/03/15 06:56:26;;;;;;;;;;;0.50;99.90;;;;;;4971055;28;19926;-75
2023/03/15 06:58:52;;;;;;;;;;;0.50;99.90;;;;;;4952790;28;19932;-75
2023/03/15 07:01:17;;;;;;;;;;;0.50;99.90;;;;;;4971585;28;19921;-74
2023/03/15 07:03:43;;;;;;;;;;;0.60;99.90;;;;;;4973921;28;20385;-74
2023/03/15 07:06:08;;;;;;;;;;;0.60;99.90;;;;;;4974340;28;19926;-76
2023/03/15 07:08:34;;;;;;;;;;;0.60;99.90;;;;;;4974583;28;19945;-75
2023/03/15 07:11:01;;;;;;;;;;;0.70;99.90;;;;;;4956973;28;20400;-75
2023/03/15 07:13:26;;;;;;;;;;;0.80;99.90;;;;;;4974394;28;19922;-75
2023/03/15 07:15:52;;;;;;;;;;;0.80;99.90;;;;;;4956539;28;19933;-74
2023/03/15 07:18:18;;;;;;;;;;;0.90;99.90;;;;;;4973992;28;19949;-74
2023/03/15 07:20:44;;;;;;;;;;;0.90;99.90;;;;;;4956423;28;20682;-73
2023/03/15 07:23:09;;;;;;;;;;;1.00;99.90;;;;;;4973905;28;19933;-76
2023/03/15 07:25:35;;;;;;;;;;;1.10;99.90;;;;;;4973923;28;19926;-75
2023/03/15 07:28:00;;;;;;;;;;;1.10;99.90;;;;;;4973985;28;19933;-75
2023/03/15 07:30:26;;;;;;;;;;;1.20;99.90;;;;;;4973850;28;19926;-79
2023/03/15 07:32:52;;;;;;;;;;;1.30;99.90;;;;;;4973637;28;19925;-81
2023/03/15 07:35:17;;;;;;;;;;;1.30;99.90;;;;;;4973715;28;19972;-82
2023/03/15 07:37:43;;;;;;;;;;;1.40;99.90;;;;;;4973450;28;19930;-83
2023/03/15 07:40:09;;;;;;;;;;;1.50;99.90;;;;;;4973219;28;20336;-80
2023/03/15 07:42:35;;;;;;;;;;;1.50;99.90;;;;;;4979552;28;20500;-76
2023/03/15 07:45:01;;;;;;;;;;;1.60;99.90;;;;;;4975689;28;19926;-79
2023/03/15 07:47:27;;;;;;;;;;;1.70;99.90;;;;;;4992848;28;19933;-75
2023/03/15 07:49:52;;;;;;;;;;;1.80;99.90;;;;;;5008108;28;19984;-76
2023/03/15 07:52:19;;;;;;;;;;;1.90;99.90;;;;;;4975380;28;20391;-75
2023/03/15 07:54:46;;;;;;;;;;;2.70;99.90;;;;;;4992650;28;20073;-75
2023/03/15 07:57:11;;;;;;;;;;;2.10;99.90;;;;;;4993023;28;19921;-75
2023/03/15 07:59:37;;;;;;;;;;;2.20;99.90;;;;;;4974935;28;19933;-74
2023/03/15 08:02:03;;;;;;;;;;;2.30;99.90;;;;;;4992377;28;20381;-75
2023/03/15 08:04:28;;;;;;;;;;;2.40;99.90;;;;;;4975466;28;19945;-75
2023/03/15 08:06:54;;;;;;;;;;;3.00;99.90;;;;;;4992633;28;19933;-74
2023/03/15 08:09:19;;;;;;;;;;;2.60;99.90;;;;;;4992639;28;20028;-75
2023/03/15 08:11:45;;;;;;;;;;;2.70;99.90;;;;;;4992266;28;20281;-74
2023/03/15 08:14:10;;;;;;;;;;;2.80;99.90;;;;;;4991312;28;19929;-74
2023/03/15 08:16:36;;;;;;;;;;;2.90;99.90;;;;;;4992589;28;20012;-76
2023/03/15 08:19:02;;;;;;;;;;;3.30;99.90;;;;;;4991291;28;19922;-75
2023/03/15 08:21:27;;;;;;;;;;;3.10;99.90;;;;;;4992089;28;19926;-76
2023/03/15 08:23:53;;;;;;;;;;;3.80;99.90;;;;;;4991802;28;19922;-75
2023/03/15 08:26:18;;;;;;;;;;;3.30;99.90;;;;;;4992317;28;20398;-78
2023/03/15 08:28:44;;;;;;;;;;;3.40;99.90;;;;;;4992225;28;19928;-77
2023/03/15 08:31:12;;;;;;;;;;;4.10;99.90;;;;;;4974679;28;19933;-76
2023/03/15 08:33:38;;;;;;;;;;;3.80;99.90;;;;;;4992228;28;19934;-79
2023/03/15 08:36:04;;;;;;;;;;;3.70;99.90;;;;;;4975030;28;19972;-78
2023/03/15 08:38:30;;;;;;;;;;;3.90;99.90;;;;;;4992064;28;19975;-79
2023/03/15 08:40:56;;;;;;;;;;;4.00;99.90;;;;;;4992085;28;19972;-77
2023/03/15 08:43:21;;;;;;;;;;;4.90;99.90;;;;;;4992326;28;19971;-75
2023/03/15 08:45:48;;;;;;;;;;;5.30;99.90;;;;;;4974876;28;20012;-80
2023/03/15 08:48:14;;;;;;;;;;;4.60;99.90;;;;;;4992026;28;19969;-79
2023/03/15 08:50:39;;;;;;;;;;;4.50;99.90;;;;;;4991695;28;19980;-79
2023/03/15 08:53:05;;;;;;;;;;;4.60;99.90;;;;;;4991186;28;19925;-76
2023/03/15 08:55:30;;;;;;;;;;;4.70;99.90;;;;;;4991564;28;19922;-79
2023/03/15 08:57:56;;;;;;;;;;;4.80;99.90;;;;;;4991984;28;20383;-81
2023/03/15 09:00:24;;;;;;;;;;;5.80;99.90;;;;;;4992021;28;20376;-80
2023/03/15 09:02:53;;;;;;;;;;;5.10;99.90;;;;;;4992147;28;19926;-78
2023/03/15 09:05:19;;;;;;;;;;;5.20;99.90;;;;;;4991938;28;19922;-80
2023/03/15 09:07:44;;;;;;;;;;;5.40;99.90;;;;;;4991993;28;19922;-76
2023/03/15 09:10:14;;;;;;;;;;;5.40;99.90;;;;;;4992228;28;20061;-78
2023/03/15 09:12:43;;;;;;;;;;;5.60;99.90;;;;;;4992013;28;19921;-77
2023/03/15 09:15:10;;;;;;;;;;;5.70;99.90;;;;;;4992052;28;19922;-78
2023/03/15 09:17:36;;;;;;;;;;;5.80;99.90;;;;;;4974704;28;19921;-77
2023/03/15 09:20:10;;;;;;;;;;;6.00;99.90;;;;;;4991001;28;20292;-76
2023/03/15 09:22:36;;;;;;;;;;;6.30;99.90;;;;;;4989673;28;19932;-82
2023/03/15 09:25:01;;;;;;;;;;;6.10;99.90;;;;;;4973705;28;20281;-76
2023/03/15 09:27:28;;;;;;;;;;;6.30;99.90;;;;;;4991303;28;19933;-76
2023/03/15 09:29:54;;;;;;;;;;;6.30;99.90;;;;;;4991938;28;19921;-80
2023/03/15 09:32:20;;;;;;;;;;;6.40;99.90;;;;;;4991684;28;20564;-78
2023/03/15 09:34:45;;;;;;;;;;;6.50;99.90;;;;;;4991223;28;19941;-77
2023/03/15 09:37:11;;;;;;;;;;;6.60;99.90;;;;;;4991936;28;20007;-76
2023/03/15 09:39:36;;;;;;;;;;;7.00;99.90;;;;;;4991491;28;19925;-80
2023/03/15 09:42:05;;;;;;;;;;;6.70;99.90;;;;;;4991432;28;19922;-76
2023/03/15 09:44:33;;;;;;;;;;;6.80;99.90;;;;;;5006759;28;19933;-75
2023/03/15 09:47:03;;;;;;;;;;;6.80;99.90;;;;;;4991538;28;19933;-79
2023/03/15 09:49:29;;;;;;;;;;;7.70;99.90;;;;;;4991576;28;19957;-77
2023/03/15 09:51:57;;;;;;;;;;;7.00;99.90;;;;;;4991271;28;20333;-80
2023/03/15 09:54:28;;;;;;;;;;;7.90;99.90;;;;;;4991838;28;19926;-77
2023/03/15 09:56:58;;;;;;;;;;;7.20;99.90;;;;;;4991416;28;20024;-79
2023/03/15 09:59:27;;;;;;;;;;;7.30;99.90;;;;;;4991504;28;20016;-75
2023/03/15 10:01:54;;;;;;;;;;;7.30;99.90;;;;;;4991610;28;19944;-79
2023/03/15 10:04:28;;;;;;;;;;;7.30;99.90;;;;;;4991395;28;19976;-78
2023/03/15 10:06:55;;;;;;;;;;;7.40;99.90;;;;;;4991176;28;19930;-79
2023/03/15 10:09:21;;;;;;;;;;;7.40;99.90;;;;;;4991396;28;20392;-77
2023/03/15 10:12:05;;;;;;;;;;;7.50;99.90;;;;;;4991153;28;20018;-78
2023/03/15 10:14:38;;;;;;;;;;;7.30;99.90;;;;;;4991362;28;19970;-75
2023/03/15 10:17:23;;;;;;;;;;;7.80;99.90;;;;;;4973987;28;20019;-80
2023/03/15 10:19:51;;;;;;;;;;;7.50;99.90;;;;;;4915262;29;20753;-79
2023/03/15 10:22:24;;;;;;;;;;;7.70;99.90;;;;;;4930955;29;20006;-77
2023/03/15 10:24:59;;;;;;;;;;;7.60;99.90;;;;;;4930717;29;19933;-79
2023/03/15 10:27:30;;;;;;;;;;;7.80;99.90;;;;;;4930952;29;19926;-75
2023/03/15 10:29:57;;;;;;;;;;;7.80;99.90;;;;;;4930862;29;20005;-76
2023/03/15 10:32:29;;;;;;;;;;;7.80;99.90;;;;;;4931064;29;19930;-76
2023/03/15 10:34:56;;;;;;;;;;;8.50;99.90;;;;;;4930901;29;19926;-76
2023/03/15 10:37:24;;;;;;;;;;;8.00;99.90;;;;;;4933634;29;19926;-75
2023/03/15 10:39:57;;;;;;;;;;;8.00;99.90;;;;;;4934992;29;19922;-74
2023/03/15 10:42:23;;;;;;;;;;;8.10;99.90;;;;;;4934406;29;19927;-75
2023/03/15 10:44:48;;;;;;;;;;;8.90;99.90;;;;;;4935024;29;20486;-75
2023/03/15 10:47:18;;;;;;;;;;;8.20;99.90;;;;;;4934607;29;20019;-74
2023/03/15 10:49:44;;;;;;;;;;;8.60;99.90;;;;;;4934536;29;19927;-74
2023/03/15 10:52:24;;;;;;;;;;;8.00;99.90;;;;;;4934519;29;20320;-75
2023/03/15 10:54:50;;;;;;;;;;;9.00;99.90;;;;;;4934594;29;19926;-75
2023/03/15 10:57:18;;;;;;;;;;;8.50;99.90;;;;;;4972608;28;20299;-77
2023/03/15 11:00:16;;;;;;;;;;;8.90;99.90;;;;;;4977226;28;19921;-75
2023/03/15 11:02:48;;;;;;;;;;;8.40;99.90;;;;;;4934343;29;20020;-76
2023/03/15 11:05:15;;;;;;;;;;;8.50;99.90;;;;;;4934207;29;19926;-74
2023/03/15 11:08:01;;;;;;;;;;;8.60;99.90;;;;;;4934100;29;19946;-76
2023/03/15 11:10:28;;;;;;;;;;;9.30;99.90;;;;;;4933552;29;19927;-74
2023/03/15 11:13:09;;;;;;;;;;;8.90;99.90;;;;;;4933916;29;20486;-75
2023/03/15 11:15:34;;;;;;;;;;;8.80;99.90;;;;;;4934367;29;19934;-74
2023/03/15 11:18:00;;;;;;;;;;;9.70;99.90;;;;;;4945316;29;19999;-73
2023/03/15 11:20:25;;;;;;;;;;;8.90;99.90;;;;;;4933838;29;19938;-73
2023/03/15 11:22:52;;;;;;;;;;;8.20;99.90;;;;;;4925553;29;19923;-74
2023/03/15 11:25:19;;;;;;;;;;;8.30;99.90;;;;;;4899374;29;19927;-74
2023/03/15 11:27:50;;;;;;;;;;;8.60;99.90;;;;;;4927857;29;19929;-76
2023/03/15 11:30:16;;;;;;;;;;;8.60;99.90;;;;;;4933763;29;20382;-73
2023/03/15 11:32:42;;;;;;;;;;;8.60;99.90;;;;;;4933657;29;19930;-74
2023/03/15 11:35:26;;;;;;;;;;;8.80;99.90;;;;;;4933930;29;20298;-75
2023/03/15 11:37:54;;;;;;;;;;;8.80;99.90;;;;;;4934562;28;20017;-73
2023/03/15 11:40:21;;;;;;;;;;;8.80;99.90;;;;;;4994015;28;19922;-73
2023/03/15 11:43:02;;;;;;;;;;;8.50;99.90;;;;;;4993624;28;19926;-75
2023/03/15 11:45:27;;;;;;;;;;;8.60;99.90;;;;;;4993402;28;19929;-74
2023/03/15 11:47:55;;;;;;;;;;;8.70;99.90;;;;;;4976372;28;20300;-73
2023/03/15 11:50:21;;;;;;;;;;;8.70;99.90;;;;;;4993661;28;19926;-74
2023/03/15 11:52:47;;;;;;;;;;;8.80;99.90;;;;;;4993399;28;19925;-74
2023/03/15 11:55:18;;;;;;;;;;;8.90;99.90;;;;;;4993491;28;20284;-74
2023/03/15 11:57:45;;;;;;;;;;;8.90;99.90;;;;;;4993243;28;19952;-75
2023/03/15 12:00:24;;;;;;;;;;;8.90;99.90;;;;;;4975735;28;19925;-74
2023/03/15 12:02:59;;;;;;;;;;;9.20;99.90;;;;;;4993420;28;19926;-75
2023/03/15 12:05:41;;;;;;;;;;;9.00;99.90;;;;;;4992579;28;19991;-72
2023/03/15 12:08:17;;;;;;;;;;;8.70;99.90;;;;;;4993552;28;20363;-73
2023/03/15 12:10:45;;;;;;;;;;;8.90;99.90;;;;;;4975738;28;20281;-73
2023/03/15 12:13:18;;;;;;;;;;;9.00;99.90;;;;;;4993301;28;20008;-78
2023/03/15 12:15:45;;;;;;;;;;;9.20;99.90;;;;;;4993178;28;20352;-74
2023/03/15 12:18:15;;;;;;;;;;;9.20;99.90;;;;;;4992947;28;19928;-74
2023/03/15 12:20:41;;;;;;;;;;;9.30;99.90;;;;;;5008034;28;19968;-75
2023/03/15 12:23:16;;;;;;;;;;;9.30;99.90;;;;;;4992885;28;19926;-74
2023/03/15 12:26:09;;;;;;;;;;;9.30;99.90;;;;;;4992597;28;19922;-73
2023/03/15 12:28:49;;;;;;;;;;;9.20;99.90;;;;;;4990109;28;19926;-73
2023/03/15 12:31:15;;;;;;;;;;;9.40;99.90;;;;;;4992691;28;19936;-74
2023/03/15 12:33:48;;;;;;;;;;;9.90;99.90;;;;;;4992773;28;20024;-74
2023/03/15 12:36:17;;;;;;;;;;;9.50;99.90;;;;;;4992873;28;20299;-75
2023/03/15 12:38:52;;;;;;;;;;;9.50;99.90;;;;;;4992862;28;19932;-74
2023/03/15 12:41:34;;;;;;;;;;;9.50;99.90;;;;;;4992634;28;19921;-73
2023/03/15 12:44:18;;;;;;;;;;;9.40;99.90;;;;;;4975039;28;19921;-73
2023/03/15 12:46:44;;;;;;;;;;;9.50;99.90;;;;;;4975211;28;20026;-73
2023/03/15 12:49:26;;;;;;;;;;;9.50;99.90;;;;;;4991832;28;19921;-75
2023/03/15 12:51:55;;;;;;;;;;;9.60;99.90;;;;;;4991789;28;19921;-73
2023/03/15 12:54:22;;;;;;;;;;;9.60;99.90;;;;;;4992303;28;19926;-72
2023/03/15 12:56:53;;;;;;;;;;;10.00;99.90;;;;;;4974758;28;19922;-73
2023/03/15 12:59:25;;;;;;;;;;;9.70;99.90;;;;;;4991656;28;20001;-73
2023/03/15 13:01:51;;;;;;;;;;;9.80;99.90;;;;;;4992111;28;19979;-74
2023/03/15 13:04:17;;;;;;;;;;;9.90;99.90;;;;;;4992461;28;19921;-74
2023/03/15 13:06:48;;;;;;;;;;;9.90;99.90;;;;;;4992596;28;19921;-73
2023/03/15 13:09:29;;;;;;;;;;;9.90;99.90;;;;;;4992079;28;20012;-75
2023/03/15 13:12:11;;;;;;;;;;;9.90;99.90;;;;;;4992327;28;20345;-73
2023/03/15 13:14:41;;;;;;;;;;;9.80;99.90;;;;;;4991885;28;19926;-73
2023/03/15 13:17:22;;;;;;;;;;;10.60;99.90;;;;;;4991879;28;20515;-73
2023/03/15 13:20:10;;;;;;;;;;;10.00;99.90;;;;;;4992059;28;20292;-75
2023/03/15 13:23:01;;;;;;;;;;;10.10;99.90;;;;;;4992066;28;19968;-73
2023/03/15 13:25:40;;;;;;;;;;;9.90;99.90;;;;;;4968615;28;19980;-75
2023/03/15 13:28:15;;;;;;;;;;;10.00;99.90;;;;;;4991732;28;19932;-76
2023/03/15 13:30:48;;;;;;;;;;;10.20;99.90;;;;;;4991647;28;19972;-74
2023/03/15 13:33:18;;;;;;;;;;;10.10;99.90;;;;;;4974111;28;20461;-74
2023/03/15 13:35:46;;;;;;;;;;;10.30;99.90;;;;;;4991837;28;20340;-75
2023/03/15 13:38:23;;;;;;;;;;;9.90;99.90;;;;;;4991833;28;20012;-74
2023/03/15 13:40:48;;;;;;;;;;;10.10;99.90;;;;;;4991570;28;20009;-74
2023/03/15 13:43:14;;;;;;;;;;;9.90;99.90;;;;;;4989206;28;20351;-76
2023/03/15 13:45:43;;;;;;;;;;;9.80;99.90;;;;;;4991510;28;20440;-74
2023/03/15 13:48:09;;;;;;;;;;;9.80;99.90;;;;;;4991517;28;19929;-75
2023/03/15 13:50:34;;;;;;;;;;;10.10;99.80;;;;;;4991841;28;20432;-74
2023/03/15 13:53:00;;;;;;;;;;;9.80;98.80;;;;;;4991784;28;20012;-74
2023/03/15 13:55:28;;;;;;;;;;;9.90;99.20;;;;;;4991695;28;19922;-74
2023/03/15 13:57:56;;;;;;;;;;;10.10;98.60;;;;;;4991355;28;19945;-73
2023/03/15 14:00:22;;;;;;;;;;;10.20;99.50;;;;;;4991144;28;20381;-74
2023/03/15 14:02:53;;;;;;;;;;;9.90;97.30;;;;;;4991684;28;19976;-74
2023/03/15 14:05:30;;;;;;;;;;;9.80;97.20;;;;;;5006573;28;19932;-74
2023/03/15 14:07:58;;;;;;;;;;;10.00;98.70;;;;;;4973748;28;20396;-75
2023/03/15 14:10:30;;;;;;;;;;;9.90;99.50;;;;;;4975194;28;19925;-74
2023/03/15 14:12:56;;;;;;;;;;;10.00;98.50;;;;;;4995485;28;19925;-74
2023/03/15 14:15:33;;;;;;;;;;;9.90;98.00;;;;;;4995591;28;19948;-73
2023/03/15 14:18:07;;;;;;;;;;;9.80;98.00;;;;;;4995119;28;19925;-73
2023/03/15 14:20:35;;;;;;;;;;;9.90;97.70;;;;;;4995263;28;19922;-74
2023/03/15 14:23:02;;;;;;;;;;;9.60;97.30;;;;;;5009985;28;20381;-74
2023/03/15 14:25:28;;;;;;;;;;;9.70;98.50;;;;;;4995449;28;19980;-73
2023/03/15 14:27:54;;;;;;;;;;;9.70;98.80;;;;;;4977767;28;19930;-74
2023/03/15 14:30:24;;;;;;;;;;;9.90;98.80;;;;;;4995015;28;20003;-73
2023/03/15 14:32:57;;;;;;;;;;;9.90;98.90;;;;;;4994970;28;19926;-74